Startpagina
METAR-TAF:

METAR-TAF

Vliegvelden :

George Best Belfast City Airport

Belfast City, Noord-Ierland

breedte: 54-36N, lengte: 005-53W, hoogte: 5 m

Actueel weer

Dit bericht is 39 minuten geleden gemaakt, om 11:50 UTC
Wind 7 kt uit het zuidwesten
Temperatuur 8°C
Vochtigheid 87%
Druk 1036 hPa
Zicht 10 km of meer

METAR: EGAC 221150Z AUTO 23007KT 9999 SCT011/// SCT019/// BKN029/// 08/06 Q1036

Tijdstip: 12:29 (12:29 UTC)

Verwachting

Dit bericht is 1 uur en het 32 minuten geleden gemaakt, om 10:57 UTC
Verwachting geldig van 22 om 12 UTC tot 22 om 21 UTC
Wind 9 kt uit het zuidzuidwesten
Zicht 10 km of meer
Gebroken wolken op 2500 ft
Kans 30% :
Tijdelijke
van 22 om 12 UTC tot 22 om 21 UTC
Zicht: 8000 m
Gebroken wolken op 1400 ft
lichte regen, motregen

TAF: EGAC 221057Z 2212/2221 21009KT 9999 BKN025 PROB30 TEMPO 2212/2221 8000 -RADZ BKN014

Waarnemingen en weersverwachtingen van meer dan 4000 vliegvelden (METAR en TAF).

De beschikbare stations zijn de gele en rode punten op de kaart.

Ga met uw muis naar het station om de naam te zien.

Klik dan om waarnemingen en weersverwachtingen te zien.

kaart wijzigen: klik op de groene knoppen met een zwart kruis om in te zoomen, op de groene knop met een streepje om uit te zoomen of op de groene pijlen voor aangrenzende kaarten.


METAR-TAF: